createdAt,value
2022-08-26T00:00:55.875Z,100229.36
2022-08-26T00:03:25.529Z,100229.60
2022-08-26T00:05:54.577Z,100227.38
2022-08-26T00:08:41.712Z,100223.36
2022-08-26T00:11:12.682Z,100223.38
2022-08-26T00:13:49.586Z,100226.40
2022-08-26T00:16:19.091Z,100222.36
2022-08-26T00:18:51.926Z,100222.77
2022-08-26T00:21:21.409Z,100221.56
2022-08-26T00:23:50.672Z,100219.64
2022-08-26T00:26:22.675Z,100221.81
2022-08-26T00:28:57.730Z,100222.04
2022-08-26T00:31:28.672Z,100219.94
2022-08-26T00:34:00.580Z,100223.11
2022-08-26T00:36:30.133Z,100221.70
2022-08-26T00:38:59.363Z,100220.42
2022-08-26T00:41:28.842Z,100220.67
2022-08-26T00:43:58.904Z,100222.25
2022-08-26T00:46:37.554Z,100224.85
2022-08-26T00:49:22.807Z,100222.02
2022-08-26T00:51:58.917Z,100221.67
2022-08-26T00:54:35.498Z,100221.87
2022-08-26T00:57:16.291Z,100221.30
2022-08-26T00:59:51.578Z,100218.19
2022-08-26T01:02:24.466Z,100214.63
2022-08-26T01:04:58.149Z,100213.41
2022-08-26T01:07:31.330Z,100213.24
2022-08-26T01:10:03.857Z,100213.30
2022-08-26T01:12:41.229Z,100213.07
2022-08-26T01:15:19.643Z,100213.96
2022-08-26T01:17:50.255Z,100217.00
2022-08-26T01:21:07.854Z,100216.03
2022-08-26T01:23:45.212Z,100213.23
2022-08-26T01:26:22.125Z,100213.81
2022-08-26T01:28:56.784Z,100210.54
2022-08-26T01:31:31.335Z,100207.30
2022-08-26T01:34:12.212Z,100208.09
2022-08-26T01:36:42.494Z,100213.45
2022-08-26T01:39:17.963Z,100212.64
2022-08-26T01:41:53.870Z,100213.05
2022-08-26T01:44:30.771Z,100211.13
2022-08-26T01:47:06.760Z,100210.21
2022-08-26T01:49:38.690Z,100212.16
2022-08-26T01:52:10.781Z,100211.30
2022-08-26T01:54:42.951Z,100207.71
2022-08-26T01:57:18.305Z,100208.14
2022-08-26T01:59:50.638Z,100206.49
2022-08-26T02:02:24.591Z,100203.03
2022-08-26T02:05:04.649Z,100201.49
2022-08-26T02:07:45.184Z,100194.34
2022-08-26T02:10:15.810Z,100198.55
2022-08-26T02:12:45.834Z,100192.90
2022-08-26T02:15:15.455Z,100193.51
2022-08-26T02:17:48.186Z,100196.84
2022-08-26T02:20:23.324Z,100192.38
2022-08-26T02:22:52.899Z,100190.38
2022-08-26T02:25:43.501Z,100193.46
2022-08-26T02:28:14.450Z,100191.78
2022-08-26T02:30:45.863Z,100194.84
2022-08-26T02:33:15.165Z,100195.79
2022-08-26T02:35:46.275Z,100196.30
2022-08-26T02:38:15.863Z,100195.48
2022-08-26T02:40:45.073Z,100194.78
2022-08-26T02:43:14.429Z,100195.06
2022-08-26T02:45:48.904Z,100197.50
2022-08-26T02:48:21.595Z,100195.42
2022-08-26T02:50:51.513Z,100194.44
2022-08-26T02:53:25.193Z,100190.86
2022-08-26T02:55:54.806Z,100189.72
2022-08-26T02:58:25.447Z,100191.20
2022-08-26T03:00:55.653Z,100191.23
2022-08-26T03:03:25.426Z,100191.36
2022-08-26T03:05:55.054Z,100189.83
2022-08-26T03:08:24.288Z,100187.50
2022-08-26T03:10:54.888Z,100184.19
2022-08-26T03:13:24.049Z,100185.51
2022-08-26T03:15:53.209Z,100187.65
2022-08-26T03:18:22.723Z,100189.30
2022-08-26T03:20:53.357Z,100187.75
2022-08-26T03:23:25.756Z,100186.10
2022-08-26T03:25:55.279Z,100185.42
2022-08-26T03:28:27.160Z,100180.86
2022-08-26T03:30:58.689Z,100178.57
2022-08-26T03:33:28.708Z,100185.59
2022-08-26T03:35:58.447Z,100182.50
2022-08-26T03:38:27.829Z,100182.83
2022-08-26T03:40:58.055Z,100180.23
2022-08-26T03:43:27.696Z,100179.59
2022-08-26T03:45:56.702Z,100177.92
2022-08-26T03:48:27.148Z,100179.16
2022-08-26T03:50:56.214Z,100177.29
2022-08-26T03:53:27.232Z,100172.63
2022-08-26T03:55:56.362Z,100169.11
2022-08-26T03:58:26.574Z,100171.77
2022-08-26T04:00:55.938Z,100168.77
2022-08-26T04:03:46.214Z,100169.48
2022-08-26T04:06:17.924Z,100170.45
2022-08-26T04:08:46.988Z,100168.52
2022-08-26T04:11:20.159Z,100164.39
2022-08-26T04:13:50.295Z,100164.99
2022-08-26T04:16:20.152Z,100165.13
2022-08-26T04:18:49.784Z,100163.48
2022-08-26T04:21:20.778Z,100162.87
2022-08-26T04:23:50.594Z,100166.91
2022-08-26T04:26:23.266Z,100169.48
2022-08-26T04:28:56.318Z,100170.57
2022-08-26T04:31:26.594Z,100169.39
2022-08-26T04:34:00.242Z,100169.52
2022-08-26T04:36:33.293Z,100172.62
2022-08-26T04:39:05.505Z,100170.70
2022-08-26T04:41:35.230Z,100169.35
2022-08-26T04:44:06.737Z,100171.98
2022-08-26T04:46:36.742Z,100170.79
2022-08-26T04:49:13.993Z,100177.72
2022-08-26T04:51:49.133Z,100176.86
2022-08-26T04:54:18.548Z,100174.08
2022-08-26T04:56:51.041Z,100177.84
2022-08-26T04:59:21.924Z,100177.52
2022-08-26T05:02:00.042Z,100178.60
2022-08-26T05:04:30.456Z,100178.02
2022-08-26T05:07:04.621Z,100182.06
2022-08-26T05:09:36.545Z,100184.68
2022-08-26T05:12:10.696Z,100186.51
2022-08-26T05:14:46.473Z,100189.95
2022-08-26T05:17:16.655Z,100196.25
2022-08-26T05:19:45.984Z,100196.95
2022-08-26T05:22:20.469Z,100199.84
2022-08-26T05:24:49.626Z,100198.50
2022-08-26T05:27:21.293Z,100198.89
2022-08-26T05:29:54.563Z,100196.27
2022-08-26T05:32:35.287Z,100199.64
2022-08-26T05:35:07.756Z,100198.90
2022-08-26T05:37:38.837Z,100199.28
2022-08-26T05:40:08.664Z,100202.90
2022-08-26T05:42:39.652Z,100204.12
2022-08-26T05:45:28.258Z,100205.40
2022-08-26T05:47:57.359Z,100205.85
2022-08-26T05:50:26.334Z,100205.31
2022-08-26T05:52:55.681Z,100207.41
2022-08-26T05:55:24.653Z,100203.77
2022-08-26T05:57:56.677Z,100205.58
2022-08-26T06:00:27.852Z,100201.54
2022-08-26T06:02:58.902Z,100200.95
2022-08-26T06:05:28.196Z,100200.65
2022-08-26T06:08:14.478Z,100198.71
2022-08-26T06:10:56.728Z,100198.89
2022-08-26T06:13:30.297Z,100197.27
2022-08-26T06:16:09.074Z,100196.71
2022-08-26T06:18:42.304Z,100195.15
2022-08-26T06:21:13.782Z,100196.62
2022-08-26T06:24:03.468Z,100198.48
2022-08-26T06:26:34.052Z,100196.31
2022-08-26T06:29:07.851Z,100198.16
2022-08-26T06:31:37.788Z,100198.94
2022-08-26T06:34:12.415Z,100197.16
2022-08-26T06:36:44.958Z,100198.08
2022-08-26T06:39:19.018Z,100199.20
2022-08-26T06:41:54.144Z,100195.13
2022-08-26T06:44:46.048Z,100193.24
2022-08-26T06:47:16.332Z,100195.47
2022-08-26T06:49:45.630Z,100195.52
2022-08-26T06:52:24.353Z,100191.40
2022-08-26T06:54:54.185Z,100191.52
2022-08-26T06:57:30.855Z,100191.10
2022-08-26T07:00:05.737Z,100186.25
2022-08-26T07:02:35.818Z,100181.88
2022-08-26T07:05:08.709Z,100182.41
2022-08-26T07:07:38.754Z,100185.89
2022-08-26T07:10:09.047Z,100188.48
2022-08-26T07:12:39.230Z,100187.92
2022-08-26T07:15:11.816Z,100185.79
2022-08-26T07:17:41.240Z,100185.38
2022-08-26T07:20:12.004Z,100184.56
2022-08-26T07:22:43.970Z,100191.70
2022-08-26T07:25:14.381Z,100186.36
2022-08-26T07:27:44.109Z,100186.33
2022-08-26T07:30:14.782Z,100183.36
2022-08-26T07:32:44.203Z,100183.29
2022-08-26T07:35:14.313Z,100185.06
2022-08-26T07:37:43.479Z,100184.02
2022-08-26T07:40:12.490Z,100181.28
2022-08-26T07:42:41.517Z,100173.62
2022-08-26T07:45:11.521Z,100172.95
2022-08-26T07:47:40.798Z,100175.67
2022-08-26T07:50:10.334Z,100175.94
2022-08-26T07:52:43.599Z,100177.41
2022-08-26T07:55:12.713Z,100175.76
2022-08-26T07:57:42.319Z,100176.79
2022-08-26T08:00:16.457Z,100179.69
2022-08-26T08:02:49.792Z,100178.89
2022-08-26T08:05:22.801Z,100179.17
2022-08-26T08:08:19.684Z,100181.09
2022-08-26T08:10:57.391Z,100178.64
2022-08-26T08:13:26.399Z,100178.70
2022-08-26T08:15:58.236Z,100178.30
2022-08-26T08:18:28.984Z,100180.88
2022-08-26T08:21:10.821Z,100180.88
2022-08-26T08:23:47.667Z,100178.32
2022-08-26T08:26:16.973Z,100172.67
2022-08-26T08:29:04.549Z,100174.84
2022-08-26T08:34:28.920Z,100172.11
2022-08-26T08:37:10.180Z,100172.35
2022-08-26T08:39:43.727Z,100164.66
2022-08-26T08:42:33.704Z,100165.00
2022-08-26T08:45:35.943Z,100157.76
2022-08-26T08:48:16.765Z,100156.07
2022-08-26T08:51:06.291Z,100155.21
2022-08-26T08:53:43.163Z,100150.94
2022-08-26T08:56:32.516Z,100155.55
2022-08-26T08:59:41.604Z,100154.91
2022-08-26T09:02:47.952Z,100151.02
2022-08-26T09:05:24.877Z,100151.89
2022-08-26T09:08:11.235Z,100150.71
2022-08-26T09:10:59.246Z,100147.67
2022-08-26T09:13:32.550Z,100146.56
2022-08-26T09:16:15.908Z,100149.90
2022-08-26T09:19:18.873Z,100145.38
2022-08-26T09:21:58.425Z,100142.90
2022-08-26T09:24:38.354Z,100143.48
2022-08-26T09:27:11.625Z,100143.64
2022-08-26T09:29:45.596Z,100147.02
2022-08-26T09:32:25.460Z,100147.59
2022-08-26T09:35:04.593Z,100144.42
2022-08-26T09:37:59.726Z,100140.56
2022-08-26T09:40:41.779Z,100140.65
2022-08-26T09:43:22.614Z,100136.69
2022-08-26T09:46:15.341Z,100131.49
2022-08-26T09:48:44.590Z,100128.18
2022-08-26T09:51:26.706Z,100126.02
2022-08-26T09:54:00.483Z,100117.70
2022-08-26T09:56:32.832Z,100118.34
2022-08-26T09:59:04.569Z,100118.74
2022-08-26T10:01:45.286Z,100123.10
2022-08-26T10:04:23.162Z,100119.30
2022-08-26T10:07:08.389Z,100117.56
2022-08-26T10:09:43.480Z,100115.73
2022-08-26T10:12:20.193Z,100115.25
2022-08-26T10:15:10.068Z,100109.92
2022-08-26T10:18:05.265Z,100102.52
2022-08-26T10:20:49.397Z,100105.08
2022-08-26T10:23:25.053Z,100103.64
2022-08-26T10:26:14.100Z,100099.82
2022-08-26T10:28:57.145Z,100101.39
2022-08-26T10:31:40.875Z,100103.86
2022-08-26T10:34:13.890Z,100099.77
2022-08-26T10:37:20.586Z,100095.48
2022-08-26T10:39:59.308Z,100092.45
2022-08-26T10:42:50.489Z,100090.91
2022-08-26T10:45:25.899Z,100088.61
2022-08-26T10:48:16.851Z,100090.39
2022-08-26T10:50:53.232Z,100092.17
2022-08-26T10:54:07.151Z,100087.83
2022-08-26T10:57:36.294Z,100083.95
2022-08-26T11:00:59.495Z,100078.54
2022-08-26T11:03:36.302Z,100072.59
2022-08-26T11:06:39.456Z,100075.11
2022-08-26T11:09:11.185Z,100068.48
2022-08-26T11:11:40.172Z,100066.83
2022-08-26T11:14:29.086Z,100062.27
2022-08-26T11:17:11.963Z,100061.77
2022-08-26T11:20:27.983Z,100064.04
2022-08-26T11:23:23.219Z,100056.10
2022-08-26T11:26:01.891Z,100056.50
2022-08-26T11:28:44.089Z,100052.02
2022-08-26T11:31:19.229Z,100047.17
2022-08-26T11:33:59.522Z,100043.99
2022-08-26T11:36:57.677Z,100042.14
2022-08-26T11:39:55.411Z,100042.79
2022-08-26T11:42:46.894Z,100042.38
2022-08-26T11:45:22.437Z,100038.51
2022-08-26T11:47:54.836Z,100033.40
2022-08-26T11:50:28.849Z,100032.83
2022-08-26T11:53:06.103Z,100034.05
2022-08-26T11:55:43.683Z,100027.88
2022-08-26T11:58:15.401Z,100031.31
2022-08-26T12:00:46.603Z,100029.10
2022-08-26T12:03:31.859Z,100028.39
2022-08-26T12:06:01.079Z,100023.75
2022-08-26T12:08:33.978Z,100018.84
2022-08-26T12:11:31.247Z,100021.45
2022-08-26T12:14:18.219Z,100016.70
2022-08-26T12:16:48.336Z,100015.90
2022-08-26T12:19:33.269Z,100003.27
2022-08-26T12:22:04.079Z,100002.75
2022-08-26T12:24:33.594Z,100004.05
2022-08-26T12:27:25.477Z,99998.85
2022-08-26T12:30:26.194Z,99997.49
2022-08-26T12:33:22.752Z,99992.27
2022-08-26T12:35:56.564Z,99991.83
2022-08-26T12:38:27.710Z,99986.17
2022-08-26T12:40:57.377Z,99986.17
2022-08-26T12:43:45.498Z,99982.67
2022-08-26T12:46:30.077Z,99981.92
2022-08-26T12:49:03.610Z,99977.50
2022-08-26T12:51:35.439Z,99975.86
2022-08-26T12:54:07.029Z,99974.16
2022-08-26T12:56:39.654Z,99967.48
2022-08-26T12:59:26.176Z,99961.59
2022-08-26T13:01:55.323Z,99955.32
2022-08-26T13:04:42.202Z,99957.18
2022-08-26T13:07:26.636Z,99954.52
2022-08-26T13:09:58.204Z,99948.37
2022-08-26T13:12:32.800Z,99944.52
2022-08-26T13:15:03.819Z,99945.48
2022-08-26T13:17:34.424Z,99944.19
2022-08-26T13:20:04.541Z,99943.45
2022-08-26T13:22:37.408Z,99941.20
2022-08-26T13:25:09.462Z,99934.78
2022-08-26T13:27:38.336Z,99933.44
2022-08-26T13:30:08.078Z,99937.02
2022-08-26T13:32:37.098Z,99932.63
2022-08-26T13:35:07.321Z,99931.35
2022-08-26T13:37:36.915Z,99926.33
2022-08-26T13:40:07.822Z,99928.02
2022-08-26T13:42:37.089Z,99921.98
2022-08-26T13:45:19.103Z,99924.89
2022-08-26T13:47:48.511Z,99920.60
2022-08-26T13:50:17.671Z,99922.39
2022-08-26T13:52:48.455Z,99919.95
2022-08-26T13:55:17.992Z,99918.48
2022-08-26T13:58:07.327Z,99916.28
2022-08-26T14:00:39.756Z,99907.77
2022-08-26T14:03:13.238Z,99907.34
2022-08-26T14:05:44.579Z,99908.40
2022-08-26T14:08:14.616Z,99901.52
2022-08-26T14:10:44.723Z,99897.94
2022-08-26T14:13:25.780Z,99897.04
2022-08-26T14:15:59.445Z,99892.45
2022-08-26T14:18:41.080Z,99890.67
2022-08-26T14:21:14.794Z,99888.15
2022-08-26T14:23:49.435Z,99890.25
2022-08-26T14:26:29.352Z,99890.31
2022-08-26T14:29:00.968Z,99882.81
2022-08-26T14:31:35.701Z,99880.20
2022-08-26T14:34:09.830Z,99878.80
2022-08-26T14:36:41.705Z,99875.08
2022-08-26T14:39:14.225Z,99873.52
2022-08-26T14:41:55.035Z,99870.52
2022-08-26T14:44:32.266Z,99873.35
2022-08-26T14:47:04.651Z,99871.98
2022-08-26T14:49:36.954Z,99868.64
2022-08-26T14:52:06.239Z,99862.85
2022-08-26T14:54:35.759Z,99870.95
2022-08-26T14:57:15.126Z,99865.89
2022-08-26T14:59:49.692Z,99865.80
2022-08-26T15:02:32.519Z,99863.64
2022-08-26T15:05:11.294Z,99860.25
2022-08-26T15:07:42.366Z,99858.79
2022-08-26T15:10:16.592Z,99860.84
2022-08-26T15:12:46.291Z,99857.58
2022-08-26T15:15:18.864Z,99860.56
2022-08-26T15:17:48.014Z,99859.44
2022-08-26T15:20:18.902Z,99861.02
2022-08-26T15:22:51.279Z,99868.69
2022-08-26T15:25:22.814Z,99866.52
2022-08-26T15:27:53.141Z,99866.73
2022-08-26T15:30:22.402Z,99865.34
2022-08-26T15:32:51.746Z,99863.13
2022-08-26T15:35:21.314Z,99862.63
2022-08-26T15:40:22.091Z,99857.63
2022-08-26T15:42:57.593Z,99855.77
2022-08-26T15:45:39.396Z,99852.67
2022-08-26T15:48:14.458Z,99851.00
2022-08-26T15:51:01.119Z,99849.02
2022-08-26T15:53:37.260Z,99850.51
2022-08-26T15:56:21.777Z,99853.22
2022-08-26T15:59:12.800Z,99849.09
2022-08-26T16:01:44.267Z,99844.84
2022-08-26T16:04:18.299Z,99839.69
2022-08-26T16:06:52.610Z,99836.70
2022-08-26T16:09:31.119Z,99834.87
2022-08-26T16:12:06.630Z,99839.08
2022-08-26T16:14:36.084Z,99837.08
2022-08-26T16:17:11.183Z,99839.54
2022-08-26T16:19:41.461Z,99836.55
2022-08-26T16:22:24.701Z,99835.13
2022-08-26T16:25:04.342Z,99834.54
2022-08-26T16:28:06.110Z,99837.23
2022-08-26T16:30:47.491Z,99837.90
2022-08-26T16:33:32.145Z,99834.43
2022-08-26T16:36:12.049Z,99835.91
2022-08-26T16:38:54.730Z,99832.05
2022-08-26T16:42:07.494Z,99830.63
2022-08-26T16:44:54.490Z,99830.27
2022-08-26T16:47:32.199Z,99828.20
2022-08-26T16:50:04.997Z,99829.04
2022-08-26T16:52:41.328Z,99828.81
2022-08-26T16:55:24.963Z,99828.42
2022-08-26T16:58:11.910Z,99831.17
2022-08-26T17:01:00.261Z,99832.88
2022-08-26T17:03:45.501Z,99836.00
2022-08-26T17:06:20.339Z,99840.90
2022-08-26T17:08:50.070Z,99844.58
2022-08-26T17:11:19.997Z,99845.84
2022-08-26T17:13:54.619Z,99847.16
2022-08-26T17:16:31.017Z,99851.02
2022-08-26T17:19:07.219Z,99848.94
2022-08-26T17:21:37.052Z,99848.02
2022-08-26T17:24:50.275Z,99846.09
2022-08-26T17:27:27.290Z,99844.27
2022-08-26T17:30:07.010Z,99846.20
2022-08-26T17:32:36.718Z,99845.02
2022-08-26T17:35:14.700Z,99846.88
2022-08-26T17:37:44.910Z,99844.90
2022-08-26T17:40:24.348Z,99850.20
2022-08-26T17:42:59.385Z,99851.80
2022-08-26T17:45:28.775Z,99852.50
2022-08-26T17:48:08.238Z,99848.42
2022-08-26T17:50:45.541Z,99848.70
2022-08-26T17:53:24.157Z,99846.11
2022-08-26T17:56:02.573Z,99848.94
2022-08-26T17:58:40.439Z,99847.59
2022-08-26T18:01:14.757Z,99846.90
2022-08-26T18:03:46.252Z,99846.52
2022-08-26T18:06:16.032Z,99845.90
2022-08-26T18:08:51.495Z,99848.96
2022-08-26T18:11:25.773Z,99846.79
2022-08-26T18:13:56.828Z,99849.83
2022-08-26T18:16:34.452Z,99850.77
2022-08-26T18:19:31.259Z,99852.63
2022-08-26T18:22:01.396Z,99850.48
2022-08-26T18:24:32.624Z,99849.95
2022-08-26T18:27:03.863Z,99851.27
2022-08-26T18:29:33.770Z,99848.93
2022-08-26T18:32:03.785Z,99850.77
2022-08-26T18:34:37.291Z,99854.64
2022-08-26T18:37:14.351Z,99851.30
2022-08-26T18:39:42.280Z,99850.14
2022-08-26T18:42:14.645Z,99851.37
2022-08-26T18:44:51.627Z,99850.77
2022-08-26T18:47:21.188Z,99854.76
2022-08-26T18:49:51.046Z,99857.42
2022-08-26T18:52:27.454Z,99859.36
2022-08-26T18:54:56.890Z,99858.04
2022-08-26T18:57:26.079Z,99856.20
2022-08-26T18:59:55.784Z,99857.73
2022-08-26T19:02:25.064Z,99860.97
2022-08-26T19:04:54.895Z,99861.61
2022-08-26T19:07:24.026Z,99863.40
2022-08-26T19:09:53.885Z,99863.07
2022-08-26T19:12:23.445Z,99863.78
2022-08-26T19:15:07.256Z,99868.14
2022-08-26T19:17:42.218Z,99866.25
2022-08-26T19:20:13.890Z,99869.29
2022-08-26T19:22:43.395Z,99868.75
2022-08-26T19:25:13.546Z,99871.88
2022-08-26T19:27:43.568Z,99869.54
2022-08-26T19:30:15.715Z,99870.66
2022-08-26T19:32:50.198Z,99874.68
2022-08-26T19:35:19.563Z,99878.39
2022-08-26T19:37:51.730Z,99880.94
2022-08-26T19:40:25.469Z,99881.88
2022-08-26T19:43:23.905Z,99883.51
2022-08-26T19:46:00.256Z,99884.65
2022-08-26T19:48:29.940Z,99888.07
2022-08-26T19:50:59.537Z,99891.58
2022-08-26T19:53:31.913Z,99895.08
2022-08-26T19:56:03.587Z,99898.50
2022-08-26T19:58:34.654Z,99902.98
2022-08-26T20:01:06.735Z,99905.14
2022-08-26T20:03:39.637Z,99907.86
2022-08-26T20:06:12.867Z,99908.83
2022-08-26T20:08:43.725Z,99908.05
2022-08-26T20:11:23.655Z,99907.97
2022-08-26T20:13:53.608Z,99906.96
2022-08-26T20:16:25.447Z,99908.98
2022-08-26T20:19:17.085Z,99908.41
2022-08-26T20:21:53.574Z,99910.82
2022-08-26T20:24:26.704Z,99913.90
2022-08-26T20:27:07.979Z,99911.16
2022-08-26T20:29:45.458Z,99909.23
2022-08-26T20:32:15.634Z,99906.41
2022-08-26T20:34:44.765Z,99901.50
2022-08-26T20:37:14.017Z,99900.33
2022-08-26T20:39:43.549Z,99900.98
2022-08-26T20:42:19.883Z,99906.13
2022-08-26T20:44:54.742Z,99913.94
2022-08-26T20:47:24.789Z,99913.44
2022-08-26T20:49:53.815Z,99910.84
2022-08-26T20:52:22.996Z,99915.64
2022-08-26T20:54:52.225Z,99915.67
2022-08-26T20:57:22.560Z,99917.20
2022-08-26T20:59:51.744Z,99917.48
2022-08-26T21:02:20.935Z,99913.25
2022-08-26T21:04:50.216Z,99913.23
2022-08-26T21:07:20.962Z,99912.85
2022-08-26T21:09:51.682Z,99913.20
2022-08-26T21:12:20.926Z,99912.92
2022-08-26T21:14:50.264Z,99911.98
2022-08-26T21:17:19.606Z,99912.75
2022-08-26T21:19:48.787Z,99911.95
2022-08-26T21:22:17.781Z,99911.88
2022-08-26T21:24:47.164Z,99911.02
2022-08-26T21:27:23.044Z,99907.70
2022-08-26T21:29:56.347Z,99903.06
2022-08-26T21:32:27.431Z,99905.00
2022-08-26T21:35:01.783Z,99904.61
2022-08-26T21:37:30.994Z,99903.26
2022-08-26T21:40:02.176Z,99903.90
2022-08-26T21:42:34.460Z,99903.98
2022-08-26T21:45:04.083Z,99902.94
2022-08-26T21:47:33.140Z,99901.83
2022-08-26T21:50:02.641Z,99896.49
2022-08-26T21:52:34.879Z,99896.92
2022-08-26T21:55:08.799Z,99897.48
2022-08-26T21:57:38.448Z,99893.79
2022-08-26T22:00:10.202Z,99891.67
2022-08-26T22:02:39.251Z,99887.74
2022-08-26T22:05:08.686Z,99884.27
2022-08-26T22:07:38.693Z,99882.94
2022-08-26T22:10:09.211Z,99877.63
2022-08-26T22:12:41.413Z,99876.25
2022-08-26T22:15:11.106Z,99875.49
2022-08-26T22:17:40.523Z,99871.98
2022-08-26T22:20:11.486Z,99868.81
2022-08-26T22:22:45.916Z,99868.16
2022-08-26T22:25:14.982Z,99865.69
2022-08-26T22:27:44.080Z,99865.55
2022-08-26T22:30:13.607Z,99866.85
2022-08-26T22:32:45.046Z,99868.88
2022-08-26T22:35:29.194Z,99867.91
2022-08-26T22:38:00.002Z,99868.99
2022-08-26T22:40:29.237Z,99870.80
2022-08-26T22:43:00.285Z,99870.39
2022-08-26T22:45:35.693Z,99871.74
2022-08-26T22:48:06.822Z,99865.31
2022-08-26T22:50:38.316Z,99867.55
2022-08-26T22:53:11.246Z,99863.94
2022-08-26T22:55:40.624Z,99860.29
2022-08-26T22:58:12.018Z,99860.27
2022-08-26T23:00:45.154Z,99856.94
2022-08-26T23:03:17.061Z,99857.35
2022-08-26T23:05:46.788Z,99855.59
2022-08-26T23:08:20.416Z,99855.34
2022-08-26T23:10:49.698Z,99856.25
2022-08-26T23:13:19.914Z,99856.79
2022-08-26T23:15:50.207Z,99853.60
2022-08-26T23:18:19.985Z,99851.28
2022-08-26T23:20:49.494Z,99852.25
2022-08-26T23:23:18.977Z,99846.99
2022-08-26T23:25:50.626Z,99844.61
2022-08-26T23:28:21.030Z,99854.16
2022-08-26T23:30:50.590Z,99860.52
2022-08-26T23:33:20.512Z,99864.91
2022-08-26T23:35:51.028Z,99866.79
2022-08-26T23:38:20.106Z,99865.24
2022-08-26T23:40:49.238Z,99860.98
2022-08-26T23:43:18.424Z,99859.81
2022-08-26T23:45:47.643Z,99863.92
2022-08-26T23:48:16.867Z,99864.37
2022-08-26T23:51:07.147Z,99865.63
2022-08-26T23:53:36.334Z,99863.88
2022-08-26T23:56:05.605Z,99856.48
2022-08-26T23:58:35.097Z,99860.42
